ADDS METAR Data INFO
IDs: Format: Raw Decoded Include TAF

Data at: 0235 UTC 21 Nov 2017

METAR for:KHLX (Hillsville/Twin Cnty, VA, US)
Text:KHLX 210215Z AUTO 21003KT 10SM CLR 04/M07 A3016 RMK AO2 T00421069
Temperature: 4.2°C ( 40°F)
Dewpoint: -6.9°C ( 20°F) [RH = 44%]
Pressure (altimeter):30.16 inches Hg (1021.4 mb)
Winds:from the SSW (210 degrees) at 3 MPH (3 knots; 1.5 m/s)
Visibility:10 or more sm (16+ km)
Ceiling:at least 12,000 feet AGL
Clouds:sky clear below 12,000 feet AGL
QC Flag:automated observation with no human augmentation